createdAt,value
2023-02-14T00:00:25.104Z,8.67
2023-02-14T00:05:30.260Z,9.33
2023-02-14T00:10:35.233Z,10.23
2023-02-14T00:15:42.924Z,8.30
2023-02-14T00:20:47.893Z,9.00
2023-02-14T00:25:53.052Z,8.27
2023-02-14T00:31:04.129Z,8.63
2023-02-14T00:36:10.506Z,9.10
2023-02-14T00:41:19.347Z,8.20
2023-02-14T00:46:27.741Z,8.73
2023-02-14T00:51:33.938Z,9.50
2023-02-14T00:56:40.620Z,9.80
2023-02-14T01:01:50.398Z,10.03
2023-02-14T01:06:55.346Z,10.20
2023-02-14T01:12:00.295Z,9.97
2023-02-14T01:17:07.854Z,9.13
2023-02-14T01:22:12.880Z,9.60
2023-02-14T01:27:17.726Z,9.30
2023-02-14T01:32:27.625Z,9.83
2023-02-14T01:37:33.295Z,8.77
2023-02-14T01:42:39.416Z,9.93
2023-02-14T01:47:49.619Z,10.97
2023-02-14T01:52:58.330Z,10.00
2023-02-14T01:58:07.435Z,9.77
2023-02-14T02:03:16.693Z,9.40
2023-02-14T02:08:21.754Z,9.33
2023-02-14T02:13:26.932Z,8.40
2023-02-14T02:18:51.383Z,7.70
2023-02-14T02:24:18.121Z,8.80
2023-02-14T02:29:48.725Z,7.17
2023-02-14T02:35:18.627Z,8.63
2023-02-14T02:40:31.773Z,8.17
2023-02-14T02:46:01.502Z,8.20
2023-02-14T02:51:29.555Z,8.07
2023-02-14T02:56:49.985Z,8.10
2023-02-14T03:02:03.086Z,8.63
2023-02-14T03:07:23.160Z,8.93
2023-02-14T03:12:51.890Z,9.00
2023-02-14T03:18:04.957Z,8.80
2023-02-14T03:23:21.721Z,9.73
2023-02-14T03:28:35.961Z,10.50
2023-02-14T03:33:48.914Z,9.40
2023-02-14T03:39:01.737Z,9.07
2023-02-14T03:44:11.536Z,8.63
2023-02-14T03:49:20.978Z,9.47
2023-02-14T03:54:30.238Z,13.73
2023-02-14T03:59:35.322Z,9.80
2023-02-14T04:04:44.217Z,10.37
2023-02-14T04:09:52.542Z,8.63
2023-02-14T04:14:57.630Z,9.80
2023-02-14T04:20:02.750Z,10.57
2023-02-14T04:25:10.774Z,10.40
2023-02-14T04:30:18.237Z,10.50
2023-02-14T04:35:24.789Z,11.03
2023-02-14T04:40:32.650Z,11.00
2023-02-14T04:45:37.694Z,12.00
2023-02-14T04:50:43.070Z,12.40
2023-02-14T04:55:51.794Z,12.20
2023-02-14T05:00:56.755Z,13.77
2023-02-14T05:06:01.807Z,11.20
2023-02-14T05:11:09.587Z,11.93
2023-02-14T05:16:15.800Z,13.00
2023-02-14T05:21:21.198Z,14.50
2023-02-14T05:26:31.187Z,12.20
2023-02-14T05:31:37.813Z,14.63
2023-02-14T05:36:42.898Z,11.73
2023-02-14T05:41:50.756Z,11.73
2023-02-14T05:46:55.815Z,12.93
2023-02-14T05:52:00.772Z,13.10
2023-02-14T05:57:08.348Z,13.50
2023-02-14T06:02:14.341Z,13.27
2023-02-14T06:07:19.670Z,15.30
2023-02-14T06:12:27.502Z,15.20
2023-02-14T06:17:33.457Z,15.00
2023-02-14T06:22:39.303Z,13.00
2023-02-14T06:28:11.210Z,10.77
2023-02-14T06:33:53.166Z,12.93
2023-02-14T06:39:02.355Z,14.77
2023-02-14T06:44:10.576Z,14.07
2023-02-14T06:49:17.219Z,10.17
2023-02-14T06:54:22.453Z,11.77
2023-02-14T06:59:30.486Z,13.83
2023-02-14T07:04:37.112Z,13.27
2023-02-14T07:09:42.385Z,14.00
2023-02-14T07:14:49.956Z,13.47
2023-02-14T07:19:55.028Z,12.90
2023-02-14T07:25:00.009Z,14.57
2023-02-14T07:30:09.175Z,17.93
2023-02-14T07:35:15.347Z,16.57
2023-02-14T07:40:25.363Z,12.63
2023-02-14T07:45:33.589Z,12.00
2023-02-14T07:50:38.529Z,15.13
2023-02-14T07:55:43.857Z,16.47
2023-02-14T08:00:51.722Z,16.13
2023-02-14T08:05:59.810Z,14.10
2023-02-14T08:11:05.041Z,13.40
2023-02-14T08:16:12.803Z,14.13
2023-02-14T08:21:17.943Z,12.30
2023-02-14T08:26:23.016Z,13.00
2023-02-14T08:31:36.119Z,15.60
2023-02-14T08:36:43.846Z,13.33
2023-02-14T08:41:51.134Z,15.43
2023-02-14T08:46:58.866Z,17.00
2023-02-14T08:52:04.094Z,16.53
2023-02-14T08:57:10.543Z,18.63
2023-02-14T09:02:19.149Z,17.03
2023-02-14T09:07:32.181Z,17.47
2023-02-14T09:12:37.337Z,16.83
2023-02-14T09:17:51.256Z,19.20
2023-02-14T09:22:59.263Z,16.50
2023-02-14T09:28:05.766Z,17.23
2023-02-14T09:33:17.893Z,18.27
2023-02-14T09:38:22.899Z,16.07
2023-02-14T09:43:37.068Z,17.37
2023-02-14T09:48:49.386Z,18.53
2023-02-14T09:54:03.058Z,18.97
2023-02-14T09:59:18.879Z,17.33
2023-02-14T10:04:35.227Z,18.03
2023-02-14T10:09:58.244Z,16.53
2023-02-14T10:15:07.663Z,14.53
2023-02-14T10:20:27.688Z,14.23
2023-02-14T10:26:00.471Z,15.30
2023-02-14T10:31:22.103Z,14.97
2023-02-14T10:36:47.132Z,16.17
2023-02-14T10:42:07.362Z,16.10
2023-02-14T10:47:37.250Z,15.97
2023-02-14T10:52:59.162Z,15.93
2023-02-14T10:58:12.494Z,15.03
2023-02-14T11:03:18.137Z,16.40
2023-02-14T11:08:29.810Z,16.37
2023-02-14T11:13:37.781Z,13.23
2023-02-14T11:18:43.899Z,13.27
2023-02-14T11:23:54.128Z,12.13
2023-02-14T11:29:02.354Z,16.20
2023-02-14T11:34:29.112Z,15.70
2023-02-14T11:39:38.343Z,15.77
2023-02-14T11:45:01.595Z,16.50
2023-02-14T11:50:13.606Z,15.37
2023-02-14T11:55:33.932Z,14.13
2023-02-14T12:00:43.997Z,13.80
2023-02-14T12:05:57.417Z,13.10
2023-02-14T12:11:21.000Z,12.40
2023-02-14T12:16:43.022Z,13.03
2023-02-14T12:21:56.361Z,13.60
2023-02-14T12:27:23.087Z,14.03
2023-02-14T12:32:30.685Z,11.17
2023-02-14T12:38:02.775Z,12.30
2023-02-14T12:43:43.290Z,13.53
2023-02-14T12:49:08.485Z,12.73
2023-02-14T12:54:37.298Z,11.73
2023-02-14T12:59:50.411Z,11.00
2023-02-14T13:05:05.126Z,10.63
2023-02-14T13:10:22.370Z,11.50
2023-02-14T13:15:40.173Z,10.03
2023-02-14T13:20:53.123Z,11.30
2023-02-14T13:26:03.470Z,11.30
2023-02-14T13:31:13.227Z,11.77
2023-02-14T13:36:22.708Z,10.73
2023-02-14T13:41:33.550Z,11.77
2023-02-14T13:47:06.506Z,11.37
2023-02-14T13:52:13.039Z,10.47
2023-02-14T13:57:37.232Z,9.87
2023-02-14T14:02:53.430Z,10.00
2023-02-14T14:08:38.115Z,11.00
2023-02-14T14:13:59.334Z,12.10
2023-02-14T14:19:14.454Z,12.57
2023-02-14T14:24:25.919Z,10.90
2023-02-14T14:29:34.741Z,11.63
2023-02-14T14:34:55.675Z,13.57
2023-02-14T14:40:02.943Z,13.07
2023-02-14T14:45:13.742Z,13.90
2023-02-14T14:50:25.415Z,15.73
2023-02-14T14:55:34.085Z,15.63
2023-02-14T15:00:42.648Z,17.17
2023-02-14T15:05:53.931Z,17.70
2023-02-14T15:11:03.093Z,17.37
2023-02-14T15:16:08.821Z,17.53
2023-02-14T15:21:18.390Z,19.63
2023-02-14T15:26:33.184Z,21.63
2023-02-14T15:31:42.486Z,22.17
2023-02-14T15:36:54.320Z,19.17
2023-02-14T15:41:59.470Z,19.53
2023-02-14T15:47:08.608Z,21.10
2023-02-14T15:52:17.505Z,23.13
2023-02-14T15:57:27.402Z,19.87
2023-02-14T16:02:37.894Z,19.23
2023-02-14T16:07:59.503Z,20.67
2023-02-14T16:13:06.721Z,23.67
2023-02-14T16:18:21.948Z,22.00
2023-02-14T16:23:33.311Z,22.53
2023-02-14T16:28:41.090Z,22.97
2023-02-14T16:33:47.540Z,22.10
2023-02-14T16:38:56.416Z,22.87
2023-02-14T16:44:01.396Z,23.13
2023-02-14T16:49:06.692Z,25.50
2023-02-14T16:54:18.356Z,25.77
2023-02-14T16:59:23.513Z,22.90
2023-02-14T17:04:29.356Z,24.13
2023-02-14T17:09:43.061Z,26.73
2023-02-14T17:14:52.604Z,25.43
2023-02-14T17:19:57.528Z,26.67
2023-02-14T17:25:05.424Z,25.77
2023-02-14T17:30:14.407Z,26.97
2023-02-14T17:35:21.417Z,26.93
2023-02-14T17:40:30.577Z,26.07
2023-02-14T17:45:35.618Z,26.10
2023-02-14T17:50:40.657Z,27.03
2023-02-14T17:55:48.346Z,28.30
2023-02-14T18:00:53.335Z,27.10
2023-02-14T18:06:02.769Z,30.37
2023-02-14T18:11:11.934Z,27.77
2023-02-14T18:16:19.128Z,29.60
2023-02-14T18:21:24.729Z,28.67
2023-02-14T18:26:33.788Z,30.17
2023-02-14T18:31:42.904Z,31.27
2023-02-14T18:36:48.365Z,31.20
2023-02-14T18:42:00.070Z,30.30
2023-02-14T18:47:12.611Z,29.40
2023-02-14T18:52:18.165Z,29.87
2023-02-14T18:57:25.976Z,33.07
2023-02-14T19:02:32.827Z,33.63
2023-02-14T19:07:38.675Z,32.30
2023-02-14T19:12:46.498Z,34.03
2023-02-14T19:17:53.097Z,33.63
2023-02-14T19:22:58.203Z,37.20
2023-02-14T19:28:06.720Z,34.53
2023-02-14T19:33:14.489Z,35.50
2023-02-14T19:38:20.301Z,39.20
2023-02-14T19:43:29.112Z,37.33
2023-02-14T19:48:37.276Z,36.47
2023-02-14T19:53:45.408Z,36.07
2023-02-14T19:58:54.854Z,36.47
2023-02-14T20:04:01.853Z,35.20
2023-02-14T20:09:12.943Z,37.37
2023-02-14T20:14:24.369Z,37.00
2023-02-14T20:19:35.410Z,36.57
2023-02-14T20:24:45.093Z,36.83
2023-02-14T20:29:55.550Z,37.97
2023-02-14T20:35:11.310Z,38.27
2023-02-14T20:40:18.201Z,39.00
2023-02-14T20:45:26.590Z,39.23
2023-02-14T20:50:36.056Z,39.40
2023-02-14T20:55:44.962Z,39.63
2023-02-14T21:00:54.982Z,41.13
2023-02-14T21:06:03.024Z,41.73
2023-02-14T21:11:10.996Z,37.77
2023-02-14T21:16:20.926Z,39.43
2023-02-14T21:21:32.482Z,39.53
2023-02-14T21:26:37.975Z,38.23
2023-02-14T21:31:47.403Z,38.97
2023-02-14T21:36:56.386Z,38.27
2023-02-14T21:42:02.180Z,39.10
2023-02-14T21:47:10.027Z,40.67
2023-02-14T21:52:15.253Z,40.47
2023-02-14T21:57:20.172Z,39.17
2023-02-14T22:02:27.836Z,39.77
2023-02-14T22:07:34.841Z,38.53
2023-02-14T22:12:42.435Z,38.80
2023-02-14T22:17:51.025Z,39.73
2023-02-14T22:22:55.992Z,38.10
2023-02-14T22:28:01.372Z,39.37
2023-02-14T22:33:08.981Z,39.97
2023-02-14T22:38:14.964Z,40.87
2023-02-14T22:43:22.179Z,40.57
2023-02-14T22:48:34.796Z,40.07
2023-02-14T22:53:40.189Z,40.03
2023-02-14T22:58:50.623Z,41.60
2023-02-14T23:04:03.711Z,39.13
2023-02-14T23:09:10.936Z,36.53
2023-02-14T23:14:29.451Z,37.83
2023-02-14T23:19:50.793Z,35.30
2023-02-14T23:24:57.361Z,37.37
2023-02-14T23:30:04.040Z,36.10
2023-02-14T23:35:15.063Z,37.27
2023-02-14T23:40:20.482Z,35.53
2023-02-14T23:45:38.883Z,36.57
2023-02-14T23:50:46.798Z,35.03
2023-02-14T23:55:51.831Z,36.23
